Time,TemperatureF,DewpointF,PressureIn,WindDirection,WindDirectionDegrees,WindSpeedMPH,WindSpeedGustMPH,Humidity,HourlyPrecipIn,Conditions,Clouds,dailyrainin,SoftwareType,DateUTC
2013-02-21 00:01:00,48.0,34.0,-100.00,NE,49,2.0,2.0,59,0.00,,,0.02,,2013-02-21 07:01:00,
2013-02-21 00:11:00,48.0,34.0,-100.00,East,94,0.0,5.0,59,0.00,,,0.02,,2013-02-21 07:11:00,
2013-02-21 00:21:00,48.0,34.0,-100.00,East,94,0.0,5.0,59,0.00,,,0.02,,2013-02-21 07:21:00,
2013-02-21 00:31:00,48.0,34.0,-100.00,ENE,60,3.0,4.0,59,0.00,,,0.02,,2013-02-21 07:31:00,
2013-02-21 00:41:00,49.0,35.0,-100.00,SE,124,5.0,5.0,58,0.00,,,0.02,,2013-02-21 07:41:00,
2013-02-21 00:52:00,49.0,35.0,-100.00,SE,124,5.0,5.0,58,0.00,,,0.02,,2013-02-21 07:52:00,
2013-02-21 01:01:00,50.0,35.0,-100.00,ESE,115,6.0,6.0,56,0.00,,,0.02,,2013-02-21 08:01:00,
2013-02-21 01:11:00,50.0,34.0,-100.00,ENE,68,5.0,5.0,55,0.00,,,0.02,,2013-02-21 08:11:00,
2013-02-21 01:21:00,50.0,34.0,-100.00,ENE,68,5.0,5.0,55,0.00,,,0.02,,2013-02-21 08:21:00,
2013-02-21 01:31:00,50.0,34.0,-100.00,East,89,4.0,5.0,54,0.00,,,0.02,,2013-02-21 08:31:00,
2013-02-21 01:41:00,50.0,34.0,-100.00,East,82,2.0,5.0,54,0.00,,,0.02,,2013-02-21 08:41:00,
2013-02-21 01:52:00,50.0,34.0,-100.00,East,82,2.0,5.0,54,0.00,,,0.02,,2013-02-21 08:52:00,
2013-02-21 02:01:00,50.0,34.0,-100.00,NE,49,3.0,3.0,54,0.00,,,0.02,,2013-02-21 09:01:00,
2013-02-21 02:11:00,50.0,34.0,-100.00,NE,49,3.0,3.0,54,0.00,,,0.02,,2013-02-21 09:11:00,
2013-02-21 02:22:00,49.0,33.0,-100.00,ENE,72,4.0,4.0,53,0.00,,,0.02,,2013-02-21 09:22:00,
2013-02-21 02:31:00,50.0,33.0,-100.00,ENE,69,3.0,4.0,52,0.00,,,0.02,,2013-02-21 09:31:00,
2013-02-21 02:41:00,50.0,33.0,-100.00,East,84,5.0,5.0,51,0.00,,,0.02,,2013-02-21 09:41:00,
2013-02-21 02:52:00,50.0,33.0,-100.00,East,84,5.0,5.0,51,0.00,,,0.02,,2013-02-21 09:52:00,
2013-02-21 03:01:00,50.0,33.0,-100.00,ENE,58,3.0,3.0,51,0.00,,,0.02,,2013-02-21 10:01:00,
2013-02-21 03:11:00,50.0,33.0,-100.00,ENE,58,3.0,3.0,51,0.00,,,0.02,,2013-02-21 10:11:00,
2013-02-21 03:21:00,50.0,33.0,-100.00,NE,52,3.0,3.0,52,0.00,,,0.02,,2013-02-21 10:21:00,
2013-02-21 03:31:00,50.0,33.0,-100.00,ESE,105,3.0,3.0,51,0.00,,,0.02,,2013-02-21 10:31:00,
2013-02-21 03:41:00,50.0,33.0,-100.00,ESE,105,3.0,3.0,51,0.00,,,0.02,,2013-02-21 10:41:00,
2013-02-21 03:51:00,49.0,32.0,-100.00,ENE,58,0.0,1.0,52,0.00,,,0.02,,2013-02-21 10:51:00,
2013-02-21 04:00:00,48.0,32.0,-100.00,East,83,2.0,3.0,53,0.00,,,0.02,,2013-02-21 11:00:00,
2013-02-21 04:10:00,48.0,32.0,-100.00,East,83,2.0,3.0,53,0.00,,,0.02,,2013-02-21 11:10:00,
2013-02-21 04:20:00,49.0,33.0,-100.00,ENE,68,1.0,0.0,53,0.00,,,0.02,,2013-02-21 11:20:00,
2013-02-21 04:31:00,49.0,33.0,-100.00,East,79,2.0,2.0,53,0.00,,,0.02,,2013-02-21 11:31:00,
2013-02-21 04:41:00,49.0,33.0,-100.00,East,79,2.0,2.0,53,0.00,,,0.02,,2013-02-21 11:41:00,
2013-02-21 04:51:00,48.0,32.0,-100.00,SE,141,3.0,3.0,53,0.00,,,0.02,,2013-02-21 11:51:00,
2013-02-21 05:01:00,48.0,32.0,-100.00,SE,127,1.0,0.0,54,0.00,,,0.02,,2013-02-21 12:01:00,
2013-02-21 05:11:00,47.0,32.0,-100.00,ENE,76,1.0,0.0,56,0.00,,,0.02,,2013-02-21 12:11:00,
2013-02-21 05:21:00,47.0,32.0,-100.00,ENE,76,1.0,0.0,56,0.00,,,0.02,,2013-02-21 12:21:00,
2013-02-21 05:32:00,46.0,31.0,-100.00,SE,132,0.0,0.0,56,0.00,,,0.02,,2013-02-21 12:32:00,
2013-02-21 05:42:00,45.0,31.0,-100.00,ENE,58,0.0,0.0,58,0.00,,,0.02,,2013-02-21 12:42:00,
2013-02-21 05:52:00,45.0,31.0,-100.00,ENE,58,0.0,0.0,58,0.00,,,0.02,,2013-02-21 12:52:00,
2013-02-21 06:01:00,45.0,31.0,-100.00,ENE,58,0.0,0.0,58,0.00,,,0.02,,2013-02-21 13:01:00,
2013-02-21 06:11:00,44.0,30.0,-100.00,ENE,58,0.0,0.0,58,0.00,,,0.02,,2013-02-21 13:11:00,
2013-02-21 06:22:00,44.0,30.0,-100.00,ENE,58,0.0,0.0,58,0.00,,,0.02,,2013-02-21 13:22:00,
2013-02-21 06:31:00,43.0,30.0,-100.00,ENE,58,0.0,0.0,60,0.00,,,0.02,,2013-02-21 13:31:00,
2013-02-21 06:41:00,42.0,30.0,-100.00,ENE,58,0.0,0.0,62,0.00,,,0.02,,2013-02-21 13:41:00,
2013-02-21 06:52:00,42.0,30.0,-100.00,ENE,58,0.0,0.0,62,0.00,,,0.02,,2013-02-21 13:52:00,
2013-02-21 07:01:00,42.0,30.0,-100.00,ENE,58,0.0,0.0,62,0.00,,,0.02,,2013-02-21 14:01:00,
2013-02-21 07:11:00,42.0,30.0,-100.00,ENE,58,0.0,0.0,62,0.00,,,0.02,,2013-02-21 14:11:00,
2013-02-21 07:21:00,42.0,31.0,-100.00,North,1,0.0,0.0,65,0.00,,,0.02,,2013-02-21 14:21:00,
2013-02-21 07:31:00,41.0,30.0,-100.00,North,1,0.0,0.0,64,0.00,,,0.02,,2013-02-21 14:31:00,
2013-02-21 07:41:00,40.0,29.0,-100.00,North,1,0.0,0.0,65,0.00,,,0.02,,2013-02-21 14:41:00,
2013-02-21 07:52:00,40.0,29.0,-100.00,North,1,0.0,0.0,65,0.00,,,0.02,,2013-02-21 14:52:00,
2013-02-21 08:01:00,41.0,30.0,-100.00,NNW,330,0.0,0.0,65,0.00,,,0.02,,2013-02-21 15:01:00,
2013-02-21 08:11:00,42.0,31.0,-100.00,NNW,330,0.0,0.0,65,0.00,,,0.02,,2013-02-21 15:11:00,
2013-02-21 08:21:00,42.0,31.0,-100.00,NNW,330,0.0,0.0,65,0.00,,,0.02,,2013-02-21 15:21:00,
2013-02-21 08:31:00,45.0,34.0,-100.00,West,260,2.0,0.0,64,0.00,,,0.02,,2013-02-21 15:31:00,
2013-02-21 08:41:00,45.0,34.0,-100.00,West,260,2.0,0.0,64,0.00,,,0.02,,2013-02-21 15:41:00,
2013-02-21 08:52:00,48.0,36.0,-100.00,SW,222,0.0,0.0,62,0.00,,,0.02,,2013-02-21 15:52:00,
2013-02-21 09:01:00,49.0,35.0,-100.00,NW,314,0.0,3.0,59,0.00,,,0.02,,2013-02-21 16:01:00,
2013-02-21 09:12:00,50.0,35.0,-100.00,NNW,330,3.0,0.0,57,0.00,,,0.02,,2013-02-21 16:12:00,
2013-02-21 09:21:00,50.0,35.0,-100.00,NNW,330,3.0,0.0,57,0.00,,,0.02,,2013-02-21 16:21:00,
2013-02-21 09:31:00,52.0,36.0,-100.00,NNW,329,0.0,2.0,55,0.00,,,0.02,,2013-02-21 16:31:00,
2013-02-21 09:41:00,56.0,38.0,-100.00,NW,309,0.0,0.0,51,0.00,,,0.02,,2013-02-21 16:41:00,
2013-02-21 09:52:00,56.0,38.0,-100.00,NW,309,0.0,0.0,51,0.00,,,0.02,,2013-02-21 16:52:00,
2013-02-21 10:01:00,60.0,40.0,-100.00,South,177,0.0,0.0,47,0.00,,,0.02,,2013-02-21 17:01:00,
2013-02-21 10:11:00,61.0,39.0,-100.00,NNE,18,0.0,1.0,44,0.00,,,0.02,,2013-02-21 17:11:00,
2013-02-21 10:21:00,61.0,39.0,-100.00,NNE,18,0.0,1.0,44,0.00,,,0.02,,2013-02-21 17:21:00,
2013-02-21 10:32:00,58.0,39.0,-100.00,East,87,9.0,9.0,49,0.00,,,0.02,,2013-02-21 17:32:00,
2013-02-21 10:41:00,58.0,39.0,-100.00,East,87,9.0,9.0,49,0.00,,,0.02,,2013-02-21 17:41:00,
2013-02-21 10:52:00,58.0,40.0,-100.00,ENE,76,7.0,7.0,52,0.00,,,0.02,,2013-02-21 17:52:00,
2013-02-21 11:01:00,58.0,41.0,-100.00,East,90,10.0,10.0,53,0.00,,,0.02,,2013-02-21 18:01:00,
2013-02-21 11:11:00,58.0,41.0,-100.00,SE,131,8.0,8.0,53,0.00,,,0.00,,2013-02-21 18:11:00,
2013-02-21 11:21:00,58.0,41.0,-100.00,SE,131,8.0,8.0,53,0.00,,,0.00,,2013-02-21 18:21:00,
2013-02-21 11:31:00,58.0,42.0,-100.00,ENE,58,10.0,10.0,55,0.00,,,0.00,,2013-02-21 18:31:00,
2013-02-21 11:42:00,58.0,42.0,-100.00,ENE,58,10.0,10.0,55,0.00,,,0.00,,2013-02-21 18:42:00,
2013-02-21 11:51:00,59.0,42.0,-100.00,East,80,12.0,12.0,53,0.00,,,0.00,,2013-02-21 18:51:00,
2013-02-21 12:01:00,59.0,42.0,-100.00,ENE,58,12.0,15.0,54,0.00,,,0.00,,2013-02-21 19:01:00,
2013-02-21 12:11:00,59.0,42.0,-100.00,ENE,58,12.0,15.0,54,0.00,,,0.00,,2013-02-21 19:11:00,
2013-02-21 12:21:00,59.0,42.0,-100.00,East,87,8.0,8.0,54,0.00,,,0.00,,2013-02-21 19:21:00,
2013-02-21 12:31:00,59.0,42.0,-100.00,ENE,73,10.0,10.0,54,0.00,,,0.00,,2013-02-21 19:31:00,
2013-02-21 12:41:00,59.0,42.0,-100.00,ENE,73,10.0,10.0,54,0.00,,,0.00,,2013-02-21 19:41:00,
2013-02-21 12:52:00,59.0,43.0,-100.00,East,87,7.0,7.0,56,0.00,,,0.00,,2013-02-21 19:52:00,
2013-02-21 13:01:00,61.0,43.0,-100.00,ENE,69,8.0,12.0,51,0.00,,,0.00,,2013-02-21 20:01:00,
2013-02-21 13:11:00,61.0,41.0,-100.00,South,169,7.0,10.0,47,0.00,,,0.00,,2013-02-21 20:11:00,
2013-02-21 13:21:00,61.0,41.0,-100.00,South,169,7.0,10.0,47,0.00,,,0.00,,2013-02-21 20:21:00,
2013-02-21 13:31:00,60.0,41.0,-100.00,ENE,75,8.0,8.0,50,0.00,,,0.00,,2013-02-21 20:31:00,
2013-02-21 13:41:00,60.0,41.0,-100.00,ENE,75,8.0,8.0,50,0.00,,,0.00,,2013-02-21 20:41:00,
2013-02-21 13:52:00,61.0,41.0,-100.00,South,186,5.0,6.0,48,0.00,,,0.00,,2013-02-21 20:52:00,
2013-02-21 14:02:00,61.0,40.0,-100.00,ENE,73,7.0,9.0,46,0.00,,,0.00,,2013-02-21 21:02:00,
2013-02-21 14:11:00,62.0,40.0,-100.00,SE,139,3.0,3.0,44,0.00,,,0.00,,2013-02-21 21:11:00,
2013-02-21 14:21:00,62.0,40.0,-100.00,SE,139,3.0,3.0,44,0.00,,,0.00,,2013-02-21 21:21:00,
2013-02-21 14:31:00,62.0,40.0,-100.00,NE,37,4.0,4.0,44,0.00,,,0.00,,2013-02-21 21:31:00,
2013-02-21 14:41:00,62.0,39.0,-100.00,East,91,5.0,5.0,42,0.00,,,0.00,,2013-02-21 21:41:00,
2013-02-21 14:52:00,62.0,39.0,-100.00,East,91,5.0,5.0,42,0.00,,,0.00,,2013-02-21 21:52:00,
2013-02-21 15:01:00,63.0,38.0,-100.00,South,179,2.0,4.0,40,0.00,,,0.00,,2013-02-21 22:01:00,
2013-02-21 15:11:00,63.0,38.0,-100.00,South,179,2.0,4.0,40,0.00,,,0.00,,2013-02-21 22:11:00,
2013-02-21 15:21:00,62.0,38.0,-100.00,SW,228,3.0,3.0,41,0.00,,,0.00,,2013-02-21 22:21:00,
2013-02-21 15:31:00,57.0,43.0,-100.00,NNE,24,8.0,8.0,59,0.00,,,0.00,,2013-02-21 22:31:00,
2013-02-21 15:41:00,58.0,42.0,-100.00,North,4,6.0,7.0,55,0.00,,,0.00,,2013-02-21 22:41:00,
2013-02-21 15:51:00,58.0,42.0,-100.00,North,4,6.0,7.0,55,0.00,,,0.00,,2013-02-21 22:51:00,
2013-02-21 16:01:00,59.0,39.0,-100.00,NNE,13,1.0,0.0,48,0.00,,,0.00,,2013-02-21 23:01:00,
2013-02-21 16:11:00,59.0,39.0,-100.00,NNE,13,1.0,0.0,48,0.00,,,0.00,,2013-02-21 23:11:00,
2013-02-21 16:21:00,60.0,40.0,-100.00,NNE,17,2.0,4.0,47,0.00,,,0.00,,2013-02-21 23:21:00,
2013-02-21 16:31:00,60.0,39.0,-100.00,NNE,15,2.0,3.0,46,0.00,,,0.00,,2013-02-21 23:31:00,
2013-02-21 16:41:00,60.0,39.0,-100.00,NNE,15,2.0,3.0,46,0.00,,,0.00,,2013-02-21 23:41:00,
2013-02-21 16:52:00,60.0,39.0,-100.00,East,83,4.0,4.0,46,0.00,,,0.00,,2013-02-21 23:52:00,
2013-02-21 17:01:00,60.0,40.0,-100.00,NW,322,1.0,0.0,48,0.00,,,0.00,,2013-02-22 00:01:00,
2013-02-21 17:11:00,60.0,40.0,-100.00,NW,322,1.0,0.0,48,0.00,,,0.00,,2013-02-22 00:11:00,
2013-02-21 17:21:00,60.0,40.0,-100.00,NNE,23,0.0,0.0,47,0.00,,,0.00,,2013-02-22 00:21:00,
2013-02-21 17:31:00,59.0,41.0,-100.00,NNW,339,4.0,4.0,51,0.00,,,0.00,,2013-02-22 00:31:00,
2013-02-21 17:41:00,59.0,41.0,-100.00,NNW,339,4.0,4.0,51,0.00,,,0.00,,2013-02-22 00:41:00,
2013-02-21 17:52:00,59.0,41.0,-100.00,NNW,330,4.0,6.0,52,0.00,,,0.00,,2013-02-22 00:52:00,
2013-02-21 18:01:00,58.0,43.0,-100.00,NNW,333,6.0,10.0,58,0.00,,,0.00,,2013-02-22 01:01:00,
2013-02-21 18:11:00,58.0,43.0,-100.00,NNW,333,6.0,10.0,58,0.00,,,0.00,,2013-02-22 01:11:00,
2013-02-21 18:21:00,56.0,44.0,-100.00,NW,318,9.0,11.0,64,0.00,,,0.00,,2013-02-22 01:21:00,
2013-02-21 18:32:00,56.0,44.0,-100.00,NNW,329,5.0,6.0,64,0.00,,,0.00,,2013-02-22 01:32:00,
2013-02-21 18:41:00,54.0,47.0,-100.00,NNW,339,9.0,11.0,77,0.00,,,0.00,,2013-02-22 01:41:00,
2013-02-21 18:51:00,54.0,47.0,-100.00,NNW,339,9.0,11.0,77,0.00,,,0.00,,2013-02-22 01:51:00,
2013-02-21 19:01:00,53.0,45.0,-100.00,NNW,329,10.0,14.0,74,0.00,,,0.00,,2013-02-22 02:01:00,
2013-02-21 19:11:00,53.0,45.0,-100.00,NNW,335,8.0,11.0,75,0.00,,,0.00,,2013-02-22 02:11:00,
2013-02-21 19:21:00,53.0,45.0,-100.00,NNW,335,8.0,11.0,75,0.00,,,0.00,,2013-02-22 02:21:00,
2013-02-21 19:31:00,52.0,44.0,-100.00,North,349,7.0,9.0,73,0.00,,,0.00,,2013-02-22 02:31:00,
2013-02-21 19:41:00,52.0,43.0,-100.00,NW,325,9.0,9.0,72,0.00,,,0.00,,2013-02-22 02:41:00,
2013-02-21 19:52:00,52.0,43.0,-100.00,NW,325,9.0,9.0,72,0.00,,,0.00,,2013-02-22 02:52:00,
2013-02-21 20:01:00,52.0,44.0,-100.00,North,4,6.0,6.0,73,0.00,,,0.00,,2013-02-22 03:01:00,
2013-02-21 20:11:00,52.0,45.0,-100.00,NW,319,11.0,11.0,76,0.00,,,0.00,,2013-02-22 03:11:00,
2013-02-21 20:21:00,52.0,45.0,-100.00,NW,319,11.0,11.0,76,0.00,,,0.00,,2013-02-22 03:21:00,
2013-02-21 20:31:00,51.0,44.0,-100.00,NNW,343,11.0,11.0,76,0.00,,,0.00,,2013-02-22 03:31:00,
2013-02-21 20:41:00,51.0,44.0,-100.00,NNW,343,11.0,11.0,76,0.00,,,0.00,,2013-02-22 03:41:00,
2013-02-21 20:52:00,51.0,43.0,-100.00,NNW,347,8.0,8.0,74,0.00,,,0.00,,2013-02-22 03:52:00,
2013-02-21 21:01:00,52.0,43.0,-100.00,NNW,336,10.0,10.0,72,0.00,,,0.00,,2013-02-22 04:01:00,
2013-02-21 21:11:00,52.0,43.0,-100.00,North,359,7.0,9.0,72,0.00,,,0.00,,2013-02-22 04:11:00,
2013-02-21 21:21:00,52.0,43.0,-100.00,North,359,7.0,9.0,72,0.00,,,0.00,,2013-02-22 04:21:00,
2013-02-21 21:31:00,51.0,46.0,-100.00,NW,316,12.0,12.0,82,0.00,,,0.00,,2013-02-22 04:31:00,
2013-02-21 21:41:00,51.0,45.0,-100.00,North,349,6.0,6.0,80,0.00,,,0.00,,2013-02-22 04:41:00,
2013-02-21 21:51:00,51.0,45.0,-100.00,North,349,6.0,6.0,80,0.00,,,0.00,,2013-02-22 04:51:00,
2013-02-21 22:01:00,51.0,44.0,-100.00,NW,325,8.0,8.0,78,0.00,,,0.00,,2013-02-22 05:01:00,
2013-02-21 22:11:00,51.0,44.0,-100.00,NW,325,8.0,8.0,78,0.00,,,0.00,,2013-02-22 05:11:00,
2013-02-21 22:21:00,52.0,43.0,-100.00,NNW,336,6.0,9.0,71,0.00,,,0.00,,2013-02-22 05:21:00,
2013-02-21 22:32:00,52.0,43.0,-100.00,North,359,8.0,8.0,70,0.00,,,0.00,,2013-02-22 05:32:00,
2013-02-21 22:41:00,52.0,43.0,-100.00,North,353,6.0,9.0,70,0.00,,,0.00,,2013-02-22 05:41:00,
2013-02-21 22:52:00,52.0,43.0,-100.00,North,353,6.0,9.0,70,0.00,,,0.00,,2013-02-22 05:52:00,
2013-02-21 23:01:00,52.0,43.0,-100.00,North,349,5.0,5.0,71,0.00,,,0.00,,2013-02-22 06:01:00,
2013-02-21 23:11:00,51.0,41.0,-100.00,North,7,6.0,11.0,68,0.00,,,0.00,,2013-02-22 06:11:00,
2013-02-21 23:21:00,51.0,41.0,-100.00,North,7,6.0,11.0,68,0.00,,,0.00,,2013-02-22 06:21:00,
2013-02-21 23:31:00,52.0,41.0,-100.00,NNW,342,4.0,4.0,66,0.00,,,0.00,,2013-02-22 06:31:00,
2013-02-21 23:41:00,52.0,41.0,-100.00,NNW,342,4.0,4.0,66,0.00,,,0.00,,2013-02-22 06:41:00,
2013-02-21 23:51:00,52.0,41.0,-100.00,NNW,333,4.0,4.0,66,0.00,,,0.00,,2013-02-22 06:51:00,